sensor_id;sensor_type;location;lat;lon;timestamp;P1;durP1;ratioP1;P2;durP2;ratioP2
50739;SDS011;36704;52.524;17.580;2023-02-11T00:01:43;58.83;;;22.42;;
50739;SDS011;36704;52.524;17.580;2023-02-11T00:04:30;53.65;;;20.17;;
50739;SDS011;36704;52.524;17.580;2023-02-11T00:07:19;53.63;;;22.05;;
50739;SDS011;36704;52.524;17.580;2023-02-11T00:10:06;51.90;;;21.25;;
50739;SDS011;36704;52.524;17.580;2023-02-11T00:12:56;61.63;;;23.10;;
50739;SDS011;36704;52.524;17.580;2023-02-11T00:15:42;52.00;;;21.48;;
50739;SDS011;36704;52.524;17.580;2023-02-11T00:18:29;57.63;;;22.10;;
50739;SDS011;36704;52.524;17.580;2023-02-11T00:21:16;47.65;;;22.52;;
50739;SDS011;36704;52.524;17.580;2023-02-11T00:24:04;44.70;;;19.85;;
50739;SDS011;36704;52.524;17.580;2023-02-11T00:26:51;49.08;;;20.13;;
50739;SDS011;36704;52.524;17.580;2023-02-11T00:29:38;44.58;;;19.73;;
50739;SDS011;36704;52.524;17.580;2023-02-11T00:32:25;49.50;;;19.65;;
50739;SDS011;36704;52.524;17.580;2023-02-11T00:35:14;43.60;;;18.83;;
50739;SDS011;36704;52.524;17.580;2023-02-11T00:38:01;54.22;;;19.13;;
50739;SDS011;36704;52.524;17.580;2023-02-11T00:40:49;46.83;;;19.95;;
50739;SDS011;36704;52.524;17.580;2023-02-11T00:43:35;45.60;;;20.25;;
50739;SDS011;36704;52.524;17.580;2023-02-11T00:46:22;41.80;;;18.33;;
50739;SDS011;36704;52.524;17.580;2023-02-11T00:49:12;44.78;;;18.30;;
50739;SDS011;36704;52.524;17.580;2023-02-11T00:51:59;43.38;;;17.55;;
50739;SDS011;36704;52.524;17.580;2023-02-11T00:54:45;46.67;;;18.77;;
50739;SDS011;36704;52.524;17.580;2023-02-11T00:57:32;42.10;;;18.20;;
50739;SDS011;36704;52.524;17.580;2023-02-11T01:00:19;46.58;;;18.15;;
50739;SDS011;36704;52.524;17.580;2023-02-11T01:03:08;43.05;;;19.10;;
50739;SDS011;36704;52.524;17.580;2023-02-11T01:05:54;51.85;;;21.13;;
50739;SDS011;36704;52.524;17.580;2023-02-11T01:08:41;49.58;;;19.63;;
50739;SDS011;36704;52.524;17.580;2023-02-11T01:11:28;45.08;;;19.00;;
50739;SDS011;36704;52.524;17.580;2023-02-11T01:14:15;49.22;;;19.20;;
50739;SDS011;36704;52.524;17.580;2023-02-11T01:17:03;48.83;;;18.95;;
50739;SDS011;36704;52.524;17.580;2023-02-11T01:19:51;48.38;;;20.75;;
50739;SDS011;36704;52.524;17.580;2023-02-11T01:22:38;46.42;;;19.55;;
50739;SDS011;36704;52.524;17.580;2023-02-11T01:25:26;45.35;;;17.88;;
50739;SDS011;36704;52.524;17.580;2023-02-11T01:28:19;48.55;;;20.33;;
50739;SDS011;36704;52.524;17.580;2023-02-11T01:31:08;43.83;;;19.52;;
50739;SDS011;36704;52.524;17.580;2023-02-11T01:33:55;45.60;;;19.13;;
50739;SDS011;36704;52.524;17.580;2023-02-11T01:36:41;48.05;;;19.90;;
50739;SDS011;36704;52.524;17.580;2023-02-11T01:39:28;46.72;;;19.95;;
50739;SDS011;36704;52.524;17.580;2023-02-11T01:42:15;54.75;;;20.15;;
50739;SDS011;36704;52.524;17.580;2023-02-11T01:45:40;49.88;;;19.52;;
50739;SDS011;36704;52.524;17.580;2023-02-11T01:48:35;52.53;;;21.25;;
50739;SDS011;36704;52.524;17.580;2023-02-11T01:51:26;47.17;;;19.90;;
50739;SDS011;36704;52.524;17.580;2023-02-11T01:54:17;49.58;;;20.77;;
50739;SDS011;36704;52.524;17.580;2023-02-11T01:57:26;49.60;;;20.25;;
50739;SDS011;36704;52.524;17.580;2023-02-11T02:00:17;46.15;;;18.83;;
50739;SDS011;36704;52.524;17.580;2023-02-11T02:03:07;48.67;;;20.67;;
50739;SDS011;36704;52.524;17.580;2023-02-11T02:05:58;45.87;;;19.63;;
50739;SDS011;36704;52.524;17.580;2023-02-11T02:08:51;43.33;;;17.75;;
50739;SDS011;36704;52.524;17.580;2023-02-11T02:11:39;40.90;;;19.42;;
50739;SDS011;36704;52.524;17.580;2023-02-11T02:14:26;46.10;;;19.40;;
50739;SDS011;36704;52.524;17.580;2023-02-11T02:26:53;45.33;;;20.40;;
50739;SDS011;36704;52.524;17.580;2023-02-11T02:36:25;49.05;;;20.67;;
50739;SDS011;36704;52.524;17.580;2023-02-11T02:39:23;48.15;;;20.27;;
50739;SDS011;36704;52.524;17.580;2023-02-11T02:42:17;51.67;;;21.48;;
50739;SDS011;36704;52.524;17.580;2023-02-11T02:45:05;46.15;;;20.15;;
50739;SDS011;36704;52.524;17.580;2023-02-11T02:47:52;52.13;;;21.00;;
50739;SDS011;36704;52.524;17.580;2023-02-11T02:50:39;52.38;;;21.38;;
50739;SDS011;36704;52.524;17.580;2023-02-11T02:53:43;46.53;;;21.05;;
50739;SDS011;36704;52.524;17.580;2023-02-11T03:02:44;51.50;;;21.67;;
50739;SDS011;36704;52.524;17.580;2023-02-11T03:08:41;52.30;;;21.50;;
50739;SDS011;36704;52.524;17.580;2023-02-11T03:11:31;52.60;;;21.90;;
50739;SDS011;36704;52.524;17.580;2023-02-11T03:14:19;49.15;;;21.10;;
50739;SDS011;36704;52.524;17.580;2023-02-11T03:17:07;47.80;;;21.60;;
50739;SDS011;36704;52.524;17.580;2023-02-11T03:19:55;56.10;;;21.63;;
50739;SDS011;36704;52.524;17.580;2023-02-11T03:22:53;49.33;;;20.92;;
50739;SDS011;36704;52.524;17.580;2023-02-11T03:25:54;50.58;;;23.08;;
50739;SDS011;36704;52.524;17.580;2023-02-11T03:28:46;50.15;;;22.02;;
50739;SDS011;36704;52.524;17.580;2023-02-11T03:34:40;45.70;;;20.45;;
50739;SDS011;36704;52.524;17.580;2023-02-11T03:37:34;46.53;;;21.55;;
50739;SDS011;36704;52.524;17.580;2023-02-11T03:40:27;46.65;;;21.77;;
50739;SDS011;36704;52.524;17.580;2023-02-11T03:43:17;48.85;;;22.23;;
50739;SDS011;36704;52.524;17.580;2023-02-11T03:46:06;53.50;;;21.13;;
50739;SDS011;36704;52.524;17.580;2023-02-11T03:48:55;51.95;;;22.35;;
50739;SDS011;36704;52.524;17.580;2023-02-11T03:51:49;48.35;;;21.27;;
50739;SDS011;36704;52.524;17.580;2023-02-11T03:54:37;52.90;;;22.08;;
50739;SDS011;36704;52.524;17.580;2023-02-11T03:57:27;50.05;;;21.77;;
50739;SDS011;36704;52.524;17.580;2023-02-11T04:00:13;43.67;;;20.08;;
50739;SDS011;36704;52.524;17.580;2023-02-11T04:03:01;49.35;;;22.85;;
50739;SDS011;36704;52.524;17.580;2023-02-11T04:05:48;59.20;;;21.95;;
50739;SDS011;36704;52.524;17.580;2023-02-11T04:08:37;53.20;;;21.17;;
50739;SDS011;36704;52.524;17.580;2023-02-11T04:11:23;48.13;;;21.52;;
50739;SDS011;36704;52.524;17.580;2023-02-11T04:14:12;54.92;;;21.25;;
50739;SDS011;36704;52.524;17.580;2023-02-11T04:16:59;57.38;;;22.45;;
50739;SDS011;36704;52.524;17.580;2023-02-11T04:19:45;52.42;;;21.90;;
50739;SDS011;36704;52.524;17.580;2023-02-11T04:22:32;50.08;;;21.77;;
50739;SDS011;36704;52.524;17.580;2023-02-11T04:25:19;50.00;;;23.05;;
50739;SDS011;36704;52.524;17.580;2023-02-11T04:28:05;61.38;;;23.15;;
50739;SDS011;36704;52.524;17.580;2023-02-11T04:30:52;56.20;;;22.42;;
50739;SDS011;36704;52.524;17.580;2023-02-11T04:33:39;49.75;;;22.60;;
50739;SDS011;36704;52.524;17.580;2023-02-11T04:36:25;52.50;;;23.25;;
50739;SDS011;36704;52.524;17.580;2023-02-11T04:39:12;57.47;;;23.75;;
50739;SDS011;36704;52.524;17.580;2023-02-11T04:41:59;60.67;;;24.50;;
50739;SDS011;36704;52.524;17.580;2023-02-11T04:44:45;51.83;;;21.52;;
50739;SDS011;36704;52.524;17.580;2023-02-11T04:47:32;58.78;;;23.80;;
50739;SDS011;36704;52.524;17.580;2023-02-11T04:50:19;56.75;;;23.50;;
50739;SDS011;36704;52.524;17.580;2023-02-11T04:53:06;56.65;;;26.30;;
50739;SDS011;36704;52.524;17.580;2023-02-11T04:55:52;51.83;;;22.38;;
50739;SDS011;36704;52.524;17.580;2023-02-11T04:58:45;51.65;;;23.13;;
50739;SDS011;36704;52.524;17.580;2023-02-11T05:01:32;53.45;;;23.27;;
50739;SDS011;36704;52.524;17.580;2023-02-11T05:04:19;60.05;;;25.10;;
50739;SDS011;36704;52.524;17.580;2023-02-11T05:07:10;55.88;;;24.58;;
50739;SDS011;36704;52.524;17.580;2023-02-11T05:09:57;55.28;;;22.65;;
50739;SDS011;36704;52.524;17.580;2023-02-11T05:12:44;54.58;;;23.48;;
50739;SDS011;36704;52.524;17.580;2023-02-11T05:15:36;55.17;;;24.08;;
50739;SDS011;36704;52.524;17.580;2023-02-11T05:18:25;63.10;;;25.52;;
50739;SDS011;36704;52.524;17.580;2023-02-11T05:21:14;57.00;;;26.15;;
50739;SDS011;36704;52.524;17.580;2023-02-11T05:24:02;57.22;;;24.08;;
50739;SDS011;36704;52.524;17.580;2023-02-11T05:26:56;56.88;;;24.90;;
50739;SDS011;36704;52.524;17.580;2023-02-11T05:29:43;59.70;;;24.80;;
50739;SDS011;36704;52.524;17.580;2023-02-11T05:32:29;60.00;;;25.77;;
50739;SDS011;36704;52.524;17.580;2023-02-11T05:35:15;53.05;;;24.38;;
50739;SDS011;36704;52.524;17.580;2023-02-11T05:38:02;67.30;;;25.75;;
50739;SDS011;36704;52.524;17.580;2023-02-11T05:40:49;57.83;;;24.52;;
50739;SDS011;36704;52.524;17.580;2023-02-11T05:43:36;63.47;;;25.95;;
50739;SDS011;36704;52.524;17.580;2023-02-11T05:46:22;61.00;;;27.55;;
50739;SDS011;36704;52.524;17.580;2023-02-11T05:49:09;66.80;;;26.55;;
50739;SDS011;36704;52.524;17.580;2023-02-11T05:51:55;57.90;;;25.65;;
50739;SDS011;36704;52.524;17.580;2023-02-11T05:54:42;66.72;;;26.52;;
50739;SDS011;36704;52.524;17.580;2023-02-11T05:57:29;62.85;;;25.95;;
50739;SDS011;36704;52.524;17.580;2023-02-11T06:00:16;63.85;;;25.85;;
50739;SDS011;36704;52.524;17.580;2023-02-11T06:03:02;69.70;;;27.45;;
50739;SDS011;36704;52.524;17.580;2023-02-11T06:05:50;67.05;;;26.48;;
50739;SDS011;36704;52.524;17.580;2023-02-11T06:08:42;60.25;;;26.65;;
50739;SDS011;36704;52.524;17.580;2023-02-11T06:11:29;61.05;;;25.85;;
50739;SDS011;36704;52.524;17.580;2023-02-11T06:14:15;53.80;;;24.17;;
50739;SDS011;36704;52.524;17.580;2023-02-11T06:17:02;76.57;;;26.73;;
50739;SDS011;36704;52.524;17.580;2023-02-11T06:19:49;64.93;;;26.73;;
50739;SDS011;36704;52.524;17.580;2023-02-11T06:22:38;66.85;;;27.48;;
50739;SDS011;36704;52.524;17.580;2023-02-11T06:25:24;73.30;;;26.10;;
50739;SDS011;36704;52.524;17.580;2023-02-11T06:28:11;74.93;;;27.23;;
50739;SDS011;36704;52.524;17.580;2023-02-11T06:31:00;72.85;;;28.13;;
50739;SDS011;36704;52.524;17.580;2023-02-11T06:33:51;77.57;;;30.25;;
50739;SDS011;36704;52.524;17.580;2023-02-11T06:36:40;66.30;;;26.77;;
50739;SDS011;36704;52.524;17.580;2023-02-11T06:39:26;76.93;;;27.58;;
50739;SDS011;36704;52.524;17.580;2023-02-11T06:42:13;75.57;;;29.45;;
50739;SDS011;36704;52.524;17.580;2023-02-11T06:44:59;73.90;;;27.95;;
50739;SDS011;36704;52.524;17.580;2023-02-11T06:47:46;69.43;;;28.85;;
50739;SDS011;36704;52.524;17.580;2023-02-11T06:50:33;77.72;;;27.15;;
50739;SDS011;36704;52.524;17.580;2023-02-11T06:53:22;86.35;;;29.50;;
50739;SDS011;36704;52.524;17.580;2023-02-11T06:56:14;78.20;;;29.75;;
50739;SDS011;36704;52.524;17.580;2023-02-11T06:59:02;74.80;;;28.58;;
50739;SDS011;36704;52.524;17.580;2023-02-11T07:01:49;73.00;;;28.77;;
50739;SDS011;36704;52.524;17.580;2023-02-11T07:04:35;82.68;;;30.25;;
50739;SDS011;36704;52.524;17.580;2023-02-11T07:07:22;70.95;;;27.55;;
50739;SDS011;36704;52.524;17.580;2023-02-11T07:10:08;69.90;;;27.00;;
50739;SDS011;36704;52.524;17.580;2023-02-11T07:12:55;75.78;;;28.73;;
50739;SDS011;36704;52.524;17.580;2023-02-11T07:15:43;76.90;;;29.13;;
50739;SDS011;36704;52.524;17.580;2023-02-11T07:18:30;66.05;;;27.90;;
50739;SDS011;36704;52.524;17.580;2023-02-11T07:21:17;71.50;;;27.63;;
50739;SDS011;36704;52.524;17.580;2023-02-11T07:24:06;73.18;;;29.92;;
50739;SDS011;36704;52.524;17.580;2023-02-11T07:26:55;86.82;;;32.17;;
50739;SDS011;36704;52.524;17.580;2023-02-11T07:29:42;74.60;;;30.05;;
50739;SDS011;36704;52.524;17.580;2023-02-11T07:32:31;82.88;;;29.70;;
50739;SDS011;36704;52.524;17.580;2023-02-11T07:35:20;84.20;;;30.90;;
50739;SDS011;36704;52.524;17.580;2023-02-11T07:38:09;88.57;;;32.38;;
50739;SDS011;36704;52.524;17.580;2023-02-11T07:40:59;86.05;;;31.70;;
50739;SDS011;36704;52.524;17.580;2023-02-11T07:43:50;86.10;;;31.15;;
50739;SDS011;36704;52.524;17.580;2023-02-11T07:46:37;84.07;;;34.42;;
50739;SDS011;36704;52.524;17.580;2023-02-11T07:49:28;86.82;;;33.90;;
50739;SDS011;36704;52.524;17.580;2023-02-11T07:52:14;96.53;;;38.08;;
50739;SDS011;36704;52.524;17.580;2023-02-11T07:55:01;84.50;;;32.42;;
50739;SDS011;36704;52.524;17.580;2023-02-11T07:57:50;95.85;;;38.33;;
50739;SDS011;36704;52.524;17.580;2023-02-11T08:00:37;95.75;;;36.03;;
50739;SDS011;36704;52.524;17.580;2023-02-11T08:03:29;88.03;;;35.53;;
50739;SDS011;36704;52.524;17.580;2023-02-11T08:06:19;88.68;;;34.80;;
50739;SDS011;36704;52.524;17.580;2023-02-11T08:09:08;87.15;;;32.15;;
50739;SDS011;36704;52.524;17.580;2023-02-11T08:11:59;85.43;;;34.67;;
50739;SDS011;36704;52.524;17.580;2023-02-11T08:14:58;95.55;;;35.78;;
50739;SDS011;36704;52.524;17.580;2023-02-11T08:17:46;75.32;;;30.50;;
50739;SDS011;36704;52.524;17.580;2023-02-11T08:20:32;80.63;;;31.88;;
50739;SDS011;36704;52.524;17.580;2023-02-11T08:23:18;79.82;;;30.40;;
50739;SDS011;36704;52.524;17.580;2023-02-11T08:26:08;85.75;;;33.40;;
50739;SDS011;36704;52.524;17.580;2023-02-11T08:28:59;81.50;;;33.20;;
50739;SDS011;36704;52.524;17.580;2023-02-11T08:31:46;194.60;;;70.90;;
50739;SDS011;36704;52.524;17.580;2023-02-11T08:34:35;127.28;;;49.50;;
50739;SDS011;36704;52.524;17.580;2023-02-11T08:37:24;104.63;;;35.30;;
50739;SDS011;36704;52.524;17.580;2023-02-11T08:40:10;90.15;;;34.95;;
50739;SDS011;36704;52.524;17.580;2023-02-11T08:42:57;95.55;;;33.22;;
50739;SDS011;36704;52.524;17.580;2023-02-11T08:45:43;96.05;;;34.95;;
50739;SDS011;36704;52.524;17.580;2023-02-11T08:48:30;90.57;;;33.58;;
50739;SDS011;36704;52.524;17.580;2023-02-11T08:51:22;78.25;;;30.45;;
50739;SDS011;36704;52.524;17.580;2023-02-11T08:54:12;79.55;;;31.33;;
50739;SDS011;36704;52.524;17.580;2023-02-11T08:56:59;78.00;;;29.95;;
50739;SDS011;36704;52.524;17.580;2023-02-11T08:59:47;79.75;;;30.27;;
50739;SDS011;36704;52.524;17.580;2023-02-11T09:02:34;83.68;;;31.17;;
50739;SDS011;36704;52.524;17.580;2023-02-11T09:05:24;82.95;;;32.45;;
50739;SDS011;36704;52.524;17.580;2023-02-11T09:08:10;80.22;;;32.58;;
50739;SDS011;36704;52.524;17.580;2023-02-11T09:11:01;65.47;;;28.80;;
50739;SDS011;36704;52.524;17.580;2023-02-11T09:13:48;79.00;;;33.85;;
50739;SDS011;36704;52.524;17.580;2023-02-11T09:16:38;79.87;;;31.70;;
50739;SDS011;36704;52.524;17.580;2023-02-11T09:19:28;80.93;;;32.42;;
50739;SDS011;36704;52.524;17.580;2023-02-11T09:22:15;70.03;;;30.80;;
50739;SDS011;36704;52.524;17.580;2023-02-11T09:25:04;79.50;;;31.25;;
50739;SDS011;36704;52.524;17.580;2023-02-11T09:27:51;72.30;;;29.25;;
50739;SDS011;36704;52.524;17.580;2023-02-11T09:30:38;66.95;;;28.25;;
50739;SDS011;36704;52.524;17.580;2023-02-11T09:33:25;68.68;;;29.65;;
50739;SDS011;36704;52.524;17.580;2023-02-11T09:36:13;79.50;;;31.30;;
50739;SDS011;36704;52.524;17.580;2023-02-11T09:39:02;72.28;;;29.58;;
50739;SDS011;36704;52.524;17.580;2023-02-11T09:44:52;80.85;;;32.13;;
50739;SDS011;36704;52.524;17.580;2023-02-11T09:47:43;73.70;;;30.15;;
50739;SDS011;36704;52.524;17.580;2023-02-11T09:50:38;65.55;;;29.50;;
50739;SDS011;36704;52.524;17.580;2023-02-11T09:53:43;66.70;;;30.45;;
50739;SDS011;36704;52.524;17.580;2023-02-11T09:56:30;69.25;;;27.20;;
50739;SDS011;36704;52.524;17.580;2023-02-11T09:59:16;68.30;;;28.95;;
50739;SDS011;36704;52.524;17.580;2023-02-11T10:02:08;67.53;;;29.20;;
50739;SDS011;36704;52.524;17.580;2023-02-11T10:18:01;74.75;;;29.05;;
50739;SDS011;36704;52.524;17.580;2023-02-11T10:21:06;81.20;;;31.23;;
50739;SDS011;36704;52.524;17.580;2023-02-11T10:24:03;82.85;;;30.67;;
50739;SDS011;36704;52.524;17.580;2023-02-11T10:26:56;80.30;;;34.20;;
50739;SDS011;36704;52.524;17.580;2023-02-11T10:29:48;81.47;;;33.97;;
50739;SDS011;36704;52.524;17.580;2023-02-11T10:32:39;73.25;;;30.02;;
50739;SDS011;36704;52.524;17.580;2023-02-11T10:35:30;76.25;;;30.48;;
50739;SDS011;36704;52.524;17.580;2023-02-11T10:38:17;69.20;;;29.85;;
50739;SDS011;36704;52.524;17.580;2023-02-11T10:41:04;74.50;;;29.73;;
50739;SDS011;36704;52.524;17.580;2023-02-11T10:43:51;77.05;;;31.65;;
50739;SDS011;36704;52.524;17.580;2023-02-11T10:46:37;80.65;;;31.88;;
50739;SDS011;36704;52.524;17.580;2023-02-11T10:49:32;79.95;;;29.00;;
50739;SDS011;36704;52.524;17.580;2023-02-11T10:52:25;73.53;;;30.77;;
50739;SDS011;36704;52.524;17.580;2023-02-11T10:55:14;80.18;;;31.75;;
50739;SDS011;36704;52.524;17.580;2023-02-11T10:58:03;72.28;;;28.80;;
50739;SDS011;36704;52.524;17.580;2023-02-11T11:00:50;67.57;;;28.08;;
50739;SDS011;36704;52.524;17.580;2023-02-11T11:03:39;65.25;;;27.83;;
50739;SDS011;36704;52.524;17.580;2023-02-11T11:06:32;71.82;;;28.60;;
50739;SDS011;36704;52.524;17.580;2023-02-11T11:09:28;69.90;;;28.00;;
50739;SDS011;36704;52.524;17.580;2023-02-11T11:12:23;61.40;;;26.00;;
50739;SDS011;36704;52.524;17.580;2023-02-11T11:15:14;63.42;;;26.42;;
50739;SDS011;36704;52.524;17.580;2023-02-11T11:21:17;56.05;;;25.92;;
50739;SDS011;36704;52.524;17.580;2023-02-11T11:24:05;55.85;;;25.42;;
50739;SDS011;36704;52.524;17.580;2023-02-11T11:27:17;60.58;;;24.75;;
50739;SDS011;36704;52.524;17.580;2023-02-11T11:30:10;54.30;;;25.58;;
50739;SDS011;36704;52.524;17.580;2023-02-11T11:33:01;66.40;;;25.50;;
50739;SDS011;36704;52.524;17.580;2023-02-11T11:35:56;63.97;;;27.58;;
50739;SDS011;36704;52.524;17.580;2023-02-11T11:38:56;57.40;;;25.20;;
50739;SDS011;36704;52.524;17.580;2023-02-11T11:41:49;65.45;;;26.58;;
50739;SDS011;36704;52.524;17.580;2023-02-11T11:44:37;78.50;;;29.40;;
50739;SDS011;36704;52.524;17.580;2023-02-11T11:51:00;61.38;;;27.20;;
50739;SDS011;36704;52.524;17.580;2023-02-11T11:56:41;75.50;;;32.10;;
50739;SDS011;36704;52.524;17.580;2023-02-11T11:59:42;65.75;;;27.27;;
50739;SDS011;36704;52.524;17.580;2023-02-11T12:18:33;68.40;;;26.80;;
50739;SDS011;36704;52.524;17.580;2023-02-11T12:21:37;61.78;;;26.02;;
50739;SDS011;36704;52.524;17.580;2023-02-11T12:30:40;56.65;;;24.58;;
50739;SDS011;36704;52.524;17.580;2023-02-11T12:36:36;52.00;;;23.10;;
50739;SDS011;36704;52.524;17.580;2023-02-11T12:39:42;53.55;;;22.35;;
50739;SDS011;36704;52.524;17.580;2023-02-11T12:45:56;45.72;;;21.77;;
50739;SDS011;36704;52.524;17.580;2023-02-11T12:54:51;45.40;;;21.50;;
50739;SDS011;36704;52.524;17.580;2023-02-11T12:57:40;44.50;;;20.60;;
50739;SDS011;36704;52.524;17.580;2023-02-11T13:06:38;44.72;;;21.23;;
50739;SDS011;36704;52.524;17.580;2023-02-11T13:09:27;46.33;;;21.55;;
50739;SDS011;36704;52.524;17.580;2023-02-11T13:12:17;45.40;;;20.52;;
50739;SDS011;36704;52.524;17.580;2023-02-11T13:15:22;41.13;;;19.55;;
50739;SDS011;36704;52.524;17.580;2023-02-11T13:18:13;44.67;;;21.20;;
50739;SDS011;36704;52.524;17.580;2023-02-11T13:36:10;38.33;;;17.98;;
50739;SDS011;36704;52.524;17.580;2023-02-11T13:39:16;38.28;;;17.27;;
50739;SDS011;36704;52.524;17.580;2023-02-11T13:42:05;41.03;;;17.10;;
50739;SDS011;36704;52.524;17.580;2023-02-11T13:44:51;36.15;;;17.73;;
50739;SDS011;36704;52.524;17.580;2023-02-11T13:47:39;39.40;;;18.98;;
50739;SDS011;36704;52.524;17.580;2023-02-11T13:50:26;43.88;;;20.35;;
50739;SDS011;36704;52.524;17.580;2023-02-11T13:53:13;39.25;;;17.15;;
50739;SDS011;36704;52.524;17.580;2023-02-11T13:56:11;38.47;;;17.58;;
50739;SDS011;36704;52.524;17.580;2023-02-11T14:02:21;35.60;;;18.13;;
50739;SDS011;36704;52.524;17.580;2023-02-11T14:05:39;34.15;;;17.48;;
50739;SDS011;36704;52.524;17.580;2023-02-11T14:12:19;37.72;;;17.50;;
50739;SDS011;36704;52.524;17.580;2023-02-11T14:18:00;35.33;;;16.38;;
50739;SDS011;36704;52.524;17.580;2023-02-11T14:20:48;33.83;;;16.85;;
50739;SDS011;36704;52.524;17.580;2023-02-11T14:23:36;32.75;;;16.73;;
50739;SDS011;36704;52.524;17.580;2023-02-11T14:30:09;33.88;;;16.77;;
50739;SDS011;36704;52.524;17.580;2023-02-11T14:39:46;38.67;;;18.65;;
50739;SDS011;36704;52.524;17.580;2023-02-11T14:42:47;42.35;;;19.50;;
50739;SDS011;36704;52.524;17.580;2023-02-11T14:45:43;38.38;;;19.00;;
50739;SDS011;36704;52.524;17.580;2023-02-11T14:48:38;41.28;;;20.20;;
50739;SDS011;36704;52.524;17.580;2023-02-11T14:51:37;40.85;;;18.90;;
50739;SDS011;36704;52.524;17.580;2023-02-11T14:54:31;37.55;;;18.25;;
50739;SDS011;36704;52.524;17.580;2023-02-11T14:57:24;58.17;;;27.20;;
50739;SDS011;36704;52.524;17.580;2023-02-11T15:00:23;51.30;;;23.60;;
50739;SDS011;36704;52.524;17.580;2023-02-11T15:03:23;47.65;;;20.50;;
50739;SDS011;36704;52.524;17.580;2023-02-11T15:06:23;42.30;;;20.42;;
50739;SDS011;36704;52.524;17.580;2023-02-11T15:11:58;52.75;;;23.98;;
50739;SDS011;36704;52.524;17.580;2023-02-11T15:14:45;43.50;;;20.50;;
50739;SDS011;36704;52.524;17.580;2023-02-11T15:17:34;57.60;;;23.20;;
50739;SDS011;36704;52.524;17.580;2023-02-11T15:20:23;74.10;;;29.00;;
50739;SDS011;36704;52.524;17.580;2023-02-11T15:23:15;47.60;;;23.05;;
50739;SDS011;36704;52.524;17.580;2023-02-11T15:26:19;46.50;;;20.25;;
50739;SDS011;36704;52.524;17.580;2023-02-11T15:29:16;49.25;;;22.13;;
50739;SDS011;36704;52.524;17.580;2023-02-11T15:35:00;46.70;;;20.80;;
50739;SDS011;36704;52.524;17.580;2023-02-11T15:37:51;47.67;;;22.48;;
50739;SDS011;36704;52.524;17.580;2023-02-11T15:40:38;41.25;;;20.55;;
50739;SDS011;36704;52.524;17.580;2023-02-11T15:43:45;46.30;;;23.05;;
50739;SDS011;36704;52.524;17.580;2023-02-11T15:46:37;46.47;;;22.73;;
50739;SDS011;36704;52.524;17.580;2023-02-11T15:49:24;48.45;;;22.02;;
50739;SDS011;36704;52.524;17.580;2023-02-11T15:52:21;47.08;;;21.65;;
50739;SDS011;36704;52.524;17.580;2023-02-11T15:55:11;62.10;;;25.88;;
50739;SDS011;36704;52.524;17.580;2023-02-11T15:58:00;43.00;;;22.80;;
50739;SDS011;36704;52.524;17.580;2023-02-11T16:00:47;47.00;;;21.38;;
50739;SDS011;36704;52.524;17.580;2023-02-11T16:03:41;48.85;;;23.40;;
50739;SDS011;36704;52.524;17.580;2023-02-11T16:06:37;40.45;;;20.40;;
50739;SDS011;36704;52.524;17.580;2023-02-11T16:09:30;50.17;;;23.25;;
50739;SDS011;36704;52.524;17.580;2023-02-11T16:12:24;44.00;;;20.83;;
50739;SDS011;36704;52.524;17.580;2023-02-11T16:18:23;46.08;;;21.85;;
50739;SDS011;36704;52.524;17.580;2023-02-11T16:21:28;45.45;;;21.83;;
50739;SDS011;36704;52.524;17.580;2023-02-11T16:24:29;48.50;;;21.67;;
50739;SDS011;36704;52.524;17.580;2023-02-11T16:27:26;52.15;;;23.02;;
50739;SDS011;36704;52.524;17.580;2023-02-11T16:30:36;56.90;;;26.23;;
50739;SDS011;36704;52.524;17.580;2023-02-11T16:33:25;63.85;;;26.83;;
50739;SDS011;36704;52.524;17.580;2023-02-11T16:36:15;54.97;;;24.65;;
50739;SDS011;36704;52.524;17.580;2023-02-11T16:39:05;52.57;;;24.07;;
50739;SDS011;36704;52.524;17.580;2023-02-11T16:41:52;46.33;;;22.52;;
50739;SDS011;36704;52.524;17.580;2023-02-11T16:44:39;55.33;;;23.17;;
50739;SDS011;36704;52.524;17.580;2023-02-11T16:47:28;51.90;;;22.38;;
50739;SDS011;36704;52.524;17.580;2023-02-11T16:50:21;48.95;;;24.65;;
50739;SDS011;36704;52.524;17.580;2023-02-11T16:53:17;48.22;;;23.25;;
50739;SDS011;36704;52.524;17.580;2023-02-11T16:59:02;44.60;;;21.25;;
50739;SDS011;36704;52.524;17.580;2023-02-11T17:02:00;39.70;;;20.73;;
50739;SDS011;36704;52.524;17.580;2023-02-11T17:04:46;42.58;;;21.27;;
50739;SDS011;36704;52.524;17.580;2023-02-11T17:07:40;45.10;;;23.55;;
50739;SDS011;36704;52.524;17.580;2023-02-11T17:10:30;46.92;;;21.83;;
50739;SDS011;36704;52.524;17.580;2023-02-11T17:13:17;72.65;;;34.05;;
50739;SDS011;36704;52.524;17.580;2023-02-11T17:16:04;63.05;;;29.70;;
50739;SDS011;36704;52.524;17.580;2023-02-11T17:18:52;45.80;;;23.55;;
50739;SDS011;36704;52.524;17.580;2023-02-11T17:21:45;52.60;;;25.00;;
50739;SDS011;36704;52.524;17.580;2023-02-11T17:24:34;51.78;;;24.77;;
50739;SDS011;36704;52.524;17.580;2023-02-11T17:27:21;49.20;;;23.05;;
50739;SDS011;36704;52.524;17.580;2023-02-11T17:30:14;54.45;;;24.65;;
50739;SDS011;36704;52.524;17.580;2023-02-11T17:33:01;57.45;;;23.75;;
50739;SDS011;36704;52.524;17.580;2023-02-11T17:35:51;46.70;;;21.95;;
50739;SDS011;36704;52.524;17.580;2023-02-11T17:38:39;48.65;;;22.05;;
50739;SDS011;36704;52.524;17.580;2023-02-11T17:41:27;51.08;;;24.33;;
50739;SDS011;36704;52.524;17.580;2023-02-11T17:44:14;46.63;;;22.42;;
50739;SDS011;36704;52.524;17.580;2023-02-11T17:47:02;56.28;;;26.92;;
50739;SDS011;36704;52.524;17.580;2023-02-11T17:49:51;45.95;;;21.08;;
50739;SDS011;36704;52.524;17.580;2023-02-11T17:52:40;52.13;;;23.77;;
50739;SDS011;36704;52.524;17.580;2023-02-11T17:55:27;43.50;;;21.85;;
50739;SDS011;36704;52.524;17.580;2023-02-11T17:58:16;51.15;;;24.23;;
50739;SDS011;36704;52.524;17.580;2023-02-11T18:01:04;54.53;;;23.33;;
50739;SDS011;36704;52.524;17.580;2023-02-11T18:03:54;52.90;;;26.63;;
50739;SDS011;36704;52.524;17.580;2023-02-11T18:06:42;46.42;;;22.70;;
50739;SDS011;36704;52.524;17.580;2023-02-11T18:09:30;38.78;;;18.92;;
50739;SDS011;36704;52.524;17.580;2023-02-11T18:12:17;40.63;;;19.85;;
50739;SDS011;36704;52.524;17.580;2023-02-11T18:15:15;40.05;;;19.10;;
50739;SDS011;36704;52.524;17.580;2023-02-11T18:18:03;40.05;;;21.38;;
50739;SDS011;36704;52.524;17.580;2023-02-11T18:20:57;40.08;;;19.17;;
50739;SDS011;36704;52.524;17.580;2023-02-11T18:23:44;39.78;;;20.05;;
50739;SDS011;36704;52.524;17.580;2023-02-11T18:26:34;42.53;;;18.73;;
50739;SDS011;36704;52.524;17.580;2023-02-11T18:29:21;39.10;;;19.33;;
50739;SDS011;36704;52.524;17.580;2023-02-11T18:32:09;39.15;;;17.80;;
50739;SDS011;36704;52.524;17.580;2023-02-11T18:34:58;37.90;;;17.65;;
50739;SDS011;36704;52.524;17.580;2023-02-11T18:37:46;41.95;;;20.02;;
50739;SDS011;36704;52.524;17.580;2023-02-11T18:40:33;36.05;;;17.80;;
50739;SDS011;36704;52.524;17.580;2023-02-11T18:43:25;35.80;;;15.80;;